sensor_id;sensor_type;location;lat;lon;timestamp;pressure;altitude;pressure_sealevel;temperature;humidity
21640;BME280;10981;45.462;10.974;2023-07-31T00:00:09;100317.06;;;23.00;100.00
21640;BME280;10981;45.462;10.974;2023-07-31T00:02:37;100325.88;;;23.00;100.00
21640;BME280;10981;45.462;10.974;2023-07-31T00:05:06;100323.19;;;23.00;100.00
21640;BME280;10981;45.462;10.974;2023-07-31T00:07:34;100321.34;;;23.01;100.00
21640;BME280;10981;45.462;10.974;2023-07-31T00:10:02;100319.50;;;23.01;100.00
21640;BME280;10981;45.462;10.974;2023-07-31T00:12:31;100326.09;;;22.99;100.00
21640;BME280;10981;45.462;10.974;2023-07-31T00:14:59;100315.41;;;22.99;100.00
21640;BME280;10981;45.462;10.974;2023-07-31T00:17:27;100323.41;;;22.99;100.00
21640;BME280;10981;45.462;10.974;2023-07-31T00:19:56;100326.47;;;23.02;100.00
21640;BME280;10981;45.462;10.974;2023-07-31T00:22:24;100332.63;;;23.03;100.00
21640;BME280;10981;45.462;10.974;2023-07-31T00:24:52;100333.22;;;23.05;100.00
21640;BME280;10981;45.462;10.974;2023-07-31T00:27:20;100324.56;;;23.10;100.00
21640;BME280;10981;45.462;10.974;2023-07-31T00:29:50;100332.78;;;23.15;100.00
21640;BME280;10981;45.462;10.974;2023-07-31T00:32:19;100331.53;;;23.11;100.00
21640;BME280;10981;45.462;10.974;2023-07-31T00:34:47;100336.06;;;23.10;100.00
21640;BME280;10981;45.462;10.974;2023-07-31T00:37:15;100334.22;;;23.11;100.00
21640;BME280;10981;45.462;10.974;2023-07-31T00:39:43;100333.19;;;23.12;100.00
21640;BME280;10981;45.462;10.974;2023-07-31T00:42:11;100334.41;;;23.16;100.00
21640;BME280;10981;45.462;10.974;2023-07-31T00:44:40;100340.97;;;23.13;100.00
21640;BME280;10981;45.462;10.974;2023-07-31T00:47:08;100335.25;;;23.10;100.00
21640;BME280;10981;45.462;10.974;2023-07-31T00:49:38;100333.41;;;23.10;100.00
21640;BME280;10981;45.462;10.974;2023-07-31T00:52:07;100336.94;;;23.04;100.00
21640;BME280;10981;45.462;10.974;2023-07-31T00:54:37;100337.34;;;23.01;100.00
21640;BME280;10981;45.462;10.974;2023-07-31T00:57:06;100324.44;;;22.98;100.00
21640;BME280;10981;45.462;10.974;2023-07-31T00:59:36;100327.56;;;22.95;100.00
21640;BME280;10981;45.462;10.974;2023-07-31T01:02:04;100323.47;;;22.92;100.00
21640;BME280;10981;45.462;10.974;2023-07-31T01:04:34;100332.72;;;22.90;100.00
21640;BME280;10981;45.462;10.974;2023-07-31T01:07:13;100331.88;;;22.89;100.00
21640;BME280;10981;45.462;10.974;2023-07-31T01:09:50;100336.81;;;22.85;100.00
21640;BME280;10981;45.462;10.974;2023-07-31T01:12:21;100343.19;;;22.84;100.00
21640;BME280;10981;45.462;10.974;2023-07-31T01:15:10;100351.41;;;22.83;100.00
21640;BME280;10981;45.462;10.974;2023-07-31T01:17:40;100346.91;;;22.83;100.00
21640;BME280;10981;45.462;10.974;2023-07-31T01:20:17;100349.16;;;22.80;100.00
21640;BME280;10981;45.462;10.974;2023-07-31T01:28:05;100351.31;;;22.64;100.00
21640;BME280;10981;45.462;10.974;2023-07-31T01:30:43;100352.72;;;22.60;100.00
21640;BME280;10981;45.462;10.974;2023-07-31T01:33:12;100349.69;;;22.57;100.00
21640;BME280;10981;45.462;10.974;2023-07-31T01:35:45;100340.47;;;22.52;100.00
21640;BME280;10981;45.462;10.974;2023-07-31T01:38:14;100335.56;;;22.49;100.00
21640;BME280;10981;45.462;10.974;2023-07-31T01:40:42;100330.84;;;22.45;100.00
21640;BME280;10981;45.462;10.974;2023-07-31T01:43:11;100331.69;;;22.45;100.00
21640;BME280;10981;45.462;10.974;2023-07-31T01:45:39;100330.84;;;22.45;100.00
21640;BME280;10981;45.462;10.974;2023-07-31T01:48:08;100328.63;;;22.42;100.00
21640;BME280;10981;45.462;10.974;2023-07-31T01:50:39;100328.44;;;22.36;100.00
21640;BME280;10981;45.462;10.974;2023-07-31T01:53:07;100317.34;;;22.33;100.00
21640;BME280;10981;45.462;10.974;2023-07-31T01:55:36;100313.88;;;22.32;100.00
21640;BME280;10981;45.462;10.974;2023-07-31T01:58:04;100316.72;;;22.31;100.00
21640;BME280;10981;45.462;10.974;2023-07-31T02:00:33;100321.25;;;22.30;100.00
21640;BME280;10981;45.462;10.974;2023-07-31T02:03:01;100322.53;;;22.21;100.00
21640;BME280;10981;45.462;10.974;2023-07-31T02:05:30;100329.72;;;22.07;100.00
21640;BME280;10981;45.462;10.974;2023-07-31T02:07:58;100330.56;;;21.94;100.00
21640;BME280;10981;45.462;10.974;2023-07-31T02:10:28;100319.50;;;21.84;100.00
21640;BME280;10981;45.462;10.974;2023-07-31T02:12:59;100323.81;;;21.78;100.00
21640;BME280;10981;45.462;10.974;2023-07-31T02:15:28;100319.31;;;21.72;100.00
21640;BME280;10981;45.462;10.974;2023-07-31T02:17:56;100326.91;;;21.68;100.00
21640;BME280;10981;45.462;10.974;2023-07-31T02:20:26;100328.56;;;21.63;100.00
21640;BME280;10981;45.462;10.974;2023-07-31T02:22:54;100321.59;;;21.62;100.00
21640;BME280;10981;45.462;10.974;2023-07-31T02:25:22;100323.22;;;21.63;100.00
21640;BME280;10981;45.462;10.974;2023-07-31T02:27:51;100323.44;;;21.61;100.00
21640;BME280;10981;45.462;10.974;2023-07-31T02:30:19;100324.47;;;21.60;100.00
21640;BME280;10981;45.462;10.974;2023-07-31T02:32:47;100323.63;;;21.60;100.00
21640;BME280;10981;45.462;10.974;2023-07-31T02:35:15;100324.47;;;21.60;100.00
21640;BME280;10981;45.462;10.974;2023-07-31T02:37:44;100313.59;;;21.62;100.00
21640;BME280;10981;45.462;10.974;2023-07-31T02:40:12;100311.56;;;21.64;100.00
21640;BME280;10981;45.462;10.974;2023-07-31T02:42:41;100306.41;;;21.62;100.00
21640;BME280;10981;45.462;10.974;2023-07-31T02:45:09;100307.03;;;21.64;100.00
21640;BME280;10981;45.462;10.974;2023-07-31T02:47:37;100305.38;;;21.70;100.00
21640;BME280;10981;45.462;10.974;2023-07-31T02:50:06;100301.91;;;21.69;100.00
21640;BME280;10981;45.462;10.974;2023-07-31T02:52:35;100300.28;;;21.68;100.00
21640;BME280;10981;45.462;10.974;2023-07-31T02:55:03;100308.06;;;21.70;100.00
21640;BME280;10981;45.462;10.974;2023-07-31T02:57:31;100300.06;;;21.77;100.00
21640;BME280;10981;45.462;10.974;2023-07-31T03:00:00;100309.88;;;21.90;100.00
21640;BME280;10981;45.462;10.974;2023-07-31T03:02:31;100310.91;;;21.88;100.00
21640;BME280;10981;45.462;10.974;2023-07-31T03:05:00;100312.34;;;21.84;100.00
21640;BME280;10981;45.462;10.974;2023-07-31T03:07:28;100316.25;;;21.68;100.00
21640;BME280;10981;45.462;10.974;2023-07-31T03:10:00;100313.78;;;21.53;100.00
21640;BME280;10981;45.462;10.974;2023-07-31T03:12:29;100322.78;;;21.39;100.00
21640;BME280;10981;45.462;10.974;2023-07-31T03:14:57;100317.25;;;21.27;100.00
21640;BME280;10981;45.462;10.974;2023-07-31T03:17:26;100319.72;;;21.22;100.00
21640;BME280;10981;45.462;10.974;2023-07-31T03:19:54;100323.59;;;21.19;100.00
21640;BME280;10981;45.462;10.974;2023-07-31T03:22:25;100331.78;;;21.18;100.00
21640;BME280;10981;45.462;10.974;2023-07-31T03:24:53;100319.06;;;21.06;100.00
21640;BME280;10981;45.462;10.974;2023-07-31T03:27:21;100333.00;;;21.15;100.00
21640;BME280;10981;45.462;10.974;2023-07-31T03:29:50;100334.63;;;21.16;100.00
21640;BME280;10981;45.462;10.974;2023-07-31T03:32:19;100332.78;;;21.17;100.00
21640;BME280;10981;45.462;10.974;2023-07-31T03:34:49;100343.44;;;21.23;100.00
21640;BME280;10981;45.462;10.974;2023-07-31T03:37:18;100337.50;;;21.21;100.00
21640;BME280;10981;45.462;10.974;2023-07-31T03:39:46;100336.88;;;21.26;100.00
21640;BME280;10981;45.462;10.974;2023-07-31T03:42:17;100335.25;;;21.18;100.00
21640;BME280;10981;45.462;10.974;2023-07-31T03:44:45;100346.06;;;21.10;100.00
21640;BME280;10981;45.462;10.974;2023-07-31T03:47:14;100340.34;;;21.06;100.00
21640;BME280;10981;45.462;10.974;2023-07-31T03:49:42;100343.81;;;21.07;100.00
21640;BME280;10981;45.462;10.974;2023-07-31T03:52:10;100338.50;;;21.07;100.00
21640;BME280;10981;45.462;10.974;2023-07-31T03:54:39;100335.03;;;21.13;100.00
21640;BME280;10981;45.462;10.974;2023-07-31T03:57:07;100339.94;;;21.16;100.00
21640;BME280;10981;45.462;10.974;2023-07-31T03:59:35;100333.59;;;21.17;100.00
21640;BME280;10981;45.462;10.974;2023-07-31T04:02:03;100331.34;;;21.14;100.00
21640;BME280;10981;45.462;10.974;2023-07-31T04:04:32;100333.81;;;21.16;100.00
21640;BME280;10981;45.462;10.974;2023-07-31T04:07:03;100331.97;;;21.16;100.00
21640;BME280;10981;45.462;10.974;2023-07-31T04:09:31;100333.00;;;21.15;100.00
21640;BME280;10981;45.462;10.974;2023-07-31T04:12:02;100332.16;;;21.15;100.00
21640;BME280;10981;45.462;10.974;2023-07-31T04:14:31;100318.06;;;21.14;100.00
21640;BME280;10981;45.462;10.974;2023-07-31T04:16:59;100327.69;;;21.15;100.00
21640;BME280;10981;45.462;10.974;2023-07-31T04:19:27;100326.84;;;21.15;100.00
21640;BME280;10981;45.462;10.974;2023-07-31T04:21:55;100333.00;;;21.15;100.00
21640;BME280;10981;45.462;10.974;2023-07-31T04:24:24;100332.38;;;21.20;100.00
21640;BME280;10981;45.462;10.974;2023-07-31T04:26:53;100334.44;;;21.25;100.00
21640;BME280;10981;45.462;10.974;2023-07-31T04:29:21;100342.41;;;21.25;100.00
21640;BME280;10981;45.462;10.974;2023-07-31T04:31:49;100342.22;;;21.26;100.00
21640;BME280;10981;45.462;10.974;2023-07-31T04:34:17;100342.00;;;21.28;100.00
21640;BME280;10981;45.462;10.974;2023-07-31T04:36:45;100343.22;;;21.32;100.00
21640;BME280;10981;45.462;10.974;2023-07-31T04:39:14;100348.16;;;21.35;100.00
21640;BME280;10981;45.462;10.974;2023-07-31T04:41:42;100336.88;;;21.33;100.00
21640;BME280;10981;45.462;10.974;2023-07-31T04:44:10;100338.75;;;21.32;100.00
21640;BME280;10981;45.462;10.974;2023-07-31T04:46:39;100350.41;;;21.38;100.00
21640;BME280;10981;45.462;10.974;2023-07-31T04:49:08;100349.59;;;21.44;100.00
21640;BME280;10981;45.462;10.974;2023-07-31T04:51:36;100347.56;;;21.46;100.00
21640;BME280;10981;45.462;10.974;2023-07-31T04:54:04;100346.13;;;21.50;100.00
21640;BME280;10981;45.462;10.974;2023-07-31T04:56:33;100341.03;;;21.55;100.00
21640;BME280;10981;45.462;10.974;2023-07-31T04:59:01;100343.91;;;21.61;100.00
21640;BME280;10981;45.462;10.974;2023-07-31T05:01:29;100336.53;;;21.69;100.00
21640;BME280;10981;45.462;10.974;2023-07-31T05:03:57;100336.72;;;21.81;100.00
21640;BME280;10981;45.462;10.974;2023-07-31T05:06:26;100338.97;;;21.91;100.00
21640;BME280;10981;45.462;10.974;2023-07-31T05:08:54;100340.59;;;21.99;100.00
21640;BME280;10981;45.462;10.974;2023-07-31T05:11:22;100341.63;;;22.04;100.00
21640;BME280;10981;45.462;10.974;2023-07-31T05:13:50;100333.19;;;22.08;100.00
21640;BME280;10981;45.462;10.974;2023-07-31T05:16:19;100344.25;;;22.11;100.00
21640;BME280;10981;45.462;10.974;2023-07-31T05:18:47;100334.41;;;22.18;100.00
21640;BME280;10981;45.462;10.974;2023-07-31T05:21:15;100346.25;;;22.29;100.00
21640;BME280;10981;45.462;10.974;2023-07-31T05:23:46;100343.41;;;22.38;100.00
21640;BME280;10981;45.462;10.974;2023-07-31T05:26:15;100348.28;;;22.47;100.00
21640;BME280;10981;45.462;10.974;2023-07-31T05:28:46;100355.41;;;22.60;100.00
21640;BME280;10981;45.462;10.974;2023-07-31T05:31:14;100355.34;;;22.74;100.00
21640;BME280;10981;45.462;10.974;2023-07-31T05:33:43;100351.56;;;22.88;100.00
21640;BME280;10981;45.462;10.974;2023-07-31T05:36:11;100350.50;;;23.02;100.00
21640;BME280;10981;45.462;10.974;2023-07-31T05:38:40;100352.28;;;23.15;100.00
21640;BME280;10981;45.462;10.974;2023-07-31T05:41:11;100353.47;;;23.20;100.00
21640;BME280;10981;45.462;10.974;2023-07-31T05:43:40;100352.69;;;23.19;100.00
21640;BME280;10981;45.462;10.974;2023-07-31T05:46:10;100356.31;;;23.25;100.00
21640;BME280;10981;45.462;10.974;2023-07-31T05:48:40;100351.09;;;23.37;100.00
21640;BME280;10981;45.462;10.974;2023-07-31T05:51:08;100350.63;;;23.46;100.00
21640;BME280;10981;45.462;10.974;2023-07-31T05:53:37;100352.66;;;23.51;100.00
21640;BME280;10981;45.462;10.974;2023-07-31T05:56:09;100353.41;;;23.58;100.00
21640;BME280;10981;45.462;10.974;2023-07-31T05:58:37;100349.44;;;23.67;100.00
21640;BME280;10981;45.462;10.974;2023-07-31T06:01:05;100347.50;;;23.75;100.00
21640;BME280;10981;45.462;10.974;2023-07-31T06:03:33;100351.53;;;23.84;100.00
21640;BME280;10981;45.462;10.974;2023-07-31T06:06:02;100355.19;;;23.90;100.00
21640;BME280;10981;45.462;10.974;2023-07-31T06:08:30;100353.72;;;23.94;100.00
21640;BME280;10981;45.462;10.974;2023-07-31T06:10:58;100357.00;;;23.96;100.00
21640;BME280;10981;45.462;10.974;2023-07-31T06:13:26;100362.81;;;23.93;100.00
21640;BME280;10981;45.462;10.974;2023-07-31T06:15:55;100364.06;;;23.83;100.00
21640;BME280;10981;45.462;10.974;2023-07-31T06:18:23;100352.69;;;23.70;100.00
21640;BME280;10981;45.462;10.974;2023-07-31T06:20:51;100371.75;;;23.73;100.00
21640;BME280;10981;45.462;10.974;2023-07-31T06:23:21;100371.91;;;23.78;100.00
21640;BME280;10981;45.462;10.974;2023-07-31T06:25:50;100371.69;;;23.80;100.00
21640;BME280;10981;45.462;10.974;2023-07-31T06:28:18;100368.59;;;23.83;100.00
21640;BME280;10981;45.462;10.974;2023-07-31T06:30:46;100377.38;;;23.90;100.00
21640;BME280;10981;45.462;10.974;2023-07-31T06:33:15;100376.72;;;23.95;100.00
21640;BME280;10981;45.462;10.974;2023-07-31T06:35:43;100382.84;;;24.02;100.00
21640;BME280;10981;45.462;10.974;2023-07-31T06:38:12;100385.44;;;24.09;100.00
21640;BME280;10981;45.462;10.974;2023-07-31T06:40:40;100381.44;;;24.18;100.00
21640;BME280;10981;45.462;10.974;2023-07-31T06:43:08;100377.69;;;24.26;100.00
21640;BME280;10981;45.462;10.974;2023-07-31T06:45:37;100380.19;;;24.39;100.00
21640;BME280;10981;45.462;10.974;2023-07-31T06:48:05;100383.06;;;24.56;100.00
21640;BME280;10981;45.462;10.974;2023-07-31T06:50:34;100390.50;;;24.73;100.00
21640;BME280;10981;45.462;10.974;2023-07-31T06:53:02;100382.84;;;24.95;100.00
21640;BME280;10981;45.462;10.974;2023-07-31T06:55:31;100383.38;;;25.16;100.00
21640;BME280;10981;45.462;10.974;2023-07-31T06:57:59;100383.81;;;25.43;100.00
21640;BME280;10981;45.462;10.974;2023-07-31T07:00:28;100378.38;;;25.61;100.00
21640;BME280;10981;45.462;10.974;2023-07-31T07:02:56;100391.31;;;25.88;100.00
21640;BME280;10981;45.462;10.974;2023-07-31T07:05:26;100391.00;;;26.08;100.00
21640;BME280;10981;45.462;10.974;2023-07-31T07:07:54;100386.19;;;26.34;100.00
21640;BME280;10981;45.462;10.974;2023-07-31T07:10:22;100387.88;;;26.64;100.00
21640;BME280;10981;45.462;10.974;2023-07-31T07:12:51;100387.19;;;26.57;100.00
21640;BME280;10981;45.462;10.974;2023-07-31T07:15:19;100382.88;;;26.56;100.00
21640;BME280;10981;45.462;10.974;2023-07-31T07:17:47;100381.22;;;26.67;100.00
21640;BME280;10981;45.462;10.974;2023-07-31T07:20:16;100380.72;;;26.70;100.00
21640;BME280;10981;45.462;10.974;2023-07-31T07:22:44;100384.59;;;26.62;100.00
21640;BME280;10981;45.462;10.974;2023-07-31T07:25:13;100390.94;;;26.44;100.00
21640;BME280;10981;45.462;10.974;2023-07-31T07:27:41;100394.56;;;26.38;100.00
21640;BME280;10981;45.462;10.974;2023-07-31T07:30:09;100387.84;;;26.23;100.00
21640;BME280;10981;45.462;10.974;2023-07-31T07:32:38;100389.13;;;26.21;100.00
21640;BME280;10981;45.462;10.974;2023-07-31T07:35:07;100387.75;;;26.18;100.00
21640;BME280;10981;45.462;10.974;2023-07-31T07:37:35;100386.66;;;26.19;100.00
21640;BME280;10981;45.462;10.974;2023-07-31T07:40:06;100381.31;;;26.19;100.00
21640;BME280;10981;45.462;10.974;2023-07-31T07:42:34;100382.94;;;26.32;100.00
21640;BME280;10981;45.462;10.974;2023-07-31T07:45:03;100377.66;;;26.49;100.00
21640;BME280;10981;45.462;10.974;2023-07-31T07:47:32;100376.56;;;26.62;100.00
21640;BME280;10981;45.462;10.974;2023-07-31T07:50:00;100375.50;;;26.75;100.00
21640;BME280;10981;45.462;10.974;2023-07-31T07:52:28;100381.03;;;26.97;100.00
21640;BME280;10981;45.462;10.974;2023-07-31T07:54:56;100374.53;;;27.39;100.00
21640;BME280;10981;45.462;10.974;2023-07-31T07:57:25;100366.66;;;27.88;100.00
21640;BME280;10981;45.462;10.974;2023-07-31T07:59:53;100372.81;;;28.45;100.00
21640;BME280;10981;45.462;10.974;2023-07-31T08:02:22;100371.22;;;28.94;100.00
21640;BME280;10981;45.462;10.974;2023-07-31T08:04:52;100374.31;;;28.80;100.00
21640;BME280;10981;45.462;10.974;2023-07-31T08:07:21;100367.16;;;28.47;100.00
21640;BME280;10981;45.462;10.974;2023-07-31T08:09:49;100365.28;;;28.25;100.00
21640;BME280;10981;45.462;10.974;2023-07-31T08:12:17;100370.06;;;28.18;100.00
21640;BME280;10981;45.462;10.974;2023-07-31T08:14:46;100369.31;;;28.67;100.00
21640;BME280;10981;45.462;10.974;2023-07-31T08:17:14;100364.84;;;29.05;100.00
21640;BME280;10981;45.462;10.974;2023-07-31T08:19:42;100366.91;;;29.58;100.00
21640;BME280;10981;45.462;10.974;2023-07-31T08:22:12;100366.78;;;29.75;100.00
21640;BME280;10981;45.462;10.974;2023-07-31T08:24:40;100371.78;;;29.56;100.00
21640;BME280;10981;45.462;10.974;2023-07-31T08:27:08;100372.88;;;29.60;100.00
21640;BME280;10981;45.462;10.974;2023-07-31T08:29:36;100382.94;;;30.12;100.00
21640;BME280;10981;45.462;10.974;2023-07-31T08:32:05;100379.97;;;30.88;94.74
21640;BME280;10981;45.462;10.974;2023-07-31T08:34:33;100376.97;;;32.23;93.43
21640;BME280;10981;45.462;10.974;2023-07-31T08:37:02;100377.28;;;33.81;79.73
21640;BME280;10981;45.462;10.974;2023-07-31T08:39:30;100370.03;;;34.82;72.52
21640;BME280;10981;45.462;10.974;2023-07-31T08:41:59;100379.97;;;35.44;65.99
21640;BME280;10981;45.462;10.974;2023-07-31T08:44:30;100380.84;;;36.14;62.56
21640;BME280;10981;45.462;10.974;2023-07-31T08:46:59;100379.63;;;36.34;60.94
21640;BME280;10981;45.462;10.974;2023-07-31T08:49:27;100377.31;;;35.99;57.91
21640;BME280;10981;45.462;10.974;2023-07-31T08:51:57;100373.28;;;35.83;57.57
21640;BME280;10981;45.462;10.974;2023-07-31T08:54:26;100373.69;;;36.04;60.62
21640;BME280;10981;45.462;10.974;2023-07-31T08:56:59;100377.19;;;36.46;59.00
21640;BME280;10981;45.462;10.974;2023-07-31T08:59:31;100368.75;;;36.06;59.76
21640;BME280;10981;45.462;10.974;2023-07-31T09:02:05;100371.84;;;36.13;56.68
21640;BME280;10981;45.462;10.974;2023-07-31T09:04:34;100375.41;;;36.00;57.92
21640;BME280;10981;45.462;10.974;2023-07-31T09:07:05;100362.66;;;35.67;57.97
21640;BME280;10981;45.462;10.974;2023-07-31T09:09:34;100364.38;;;35.30;58.88
21640;BME280;10981;45.462;10.974;2023-07-31T09:12:02;100365.56;;;34.72;59.97
21640;BME280;10981;45.462;10.974;2023-07-31T09:14:30;100364.75;;;34.09;61.23
21640;BME280;10981;45.462;10.974;2023-07-31T09:16:59;100362.09;;;33.50;59.08
21640;BME280;10981;45.462;10.974;2023-07-31T09:19:33;100355.25;;;33.29;63.51
21640;BME280;10981;45.462;10.974;2023-07-31T09:22:02;100352.06;;;33.16;68.03
21640;BME280;10981;45.462;10.974;2023-07-31T09:24:32;100342.94;;;33.07;67.56
21640;BME280;10981;45.462;10.974;2023-07-31T09:27:01;100339.13;;;33.03;65.74
21640;BME280;10981;45.462;10.974;2023-07-31T09:29:30;100347.38;;;33.22;67.35
21640;BME280;10981;45.462;10.974;2023-07-31T09:31:58;100347.25;;;33.08;66.53
21640;BME280;10981;45.462;10.974;2023-07-31T09:34:37;100335.59;;;33.07;65.78
21640;BME280;10981;45.462;10.974;2023-07-31T09:37:08;100344.31;;;33.04;68.76
21640;BME280;10981;45.462;10.974;2023-07-31T09:39:47;100337.16;;;33.14;64.65
21640;BME280;10981;45.462;10.974;2023-07-31T09:42:25;100339.78;;;33.29;66.25
21640;BME280;10981;45.462;10.974;2023-07-31T09:44:54;100343.25;;;33.35;66.59
21640;BME280;10981;45.462;10.974;2023-07-31T09:47:34;100345.31;;;33.14;63.16
21640;BME280;10981;45.462;10.974;2023-07-31T09:50:07;100345.78;;;33.21;65.81
21640;BME280;10981;45.462;10.974;2023-07-31T09:52:39;100335.72;;;32.92;63.17
21640;BME280;10981;45.462;10.974;2023-07-31T09:55:08;100333.63;;;32.79;64.44
21640;BME280;10981;45.462;10.974;2023-07-31T09:57:47;100343.41;;;32.69;65.79
21640;BME280;10981;45.462;10.974;2023-07-31T10:00:19;100351.69;;;32.93;64.25
21640;BME280;10981;45.462;10.974;2023-07-31T10:02:51;100350.69;;;32.84;65.66
21640;BME280;10981;45.462;10.974;2023-07-31T10:05:20;100338.25;;;33.13;67.45
21640;BME280;10981;45.462;10.974;2023-07-31T10:07:54;100342.50;;;33.24;66.76
21640;BME280;10981;45.462;10.974;2023-07-31T10:10:23;100334.66;;;32.88;63.80
21640;BME280;10981;45.462;10.974;2023-07-31T10:12:53;100341.72;;;32.84;66.54
21640;BME280;10981;45.462;10.974;2023-07-31T10:15:22;100339.88;;;32.79;65.14
21640;BME280;10981;45.462;10.974;2023-07-31T10:17:51;100331.06;;;32.98;66.46
21640;BME280;10981;45.462;10.974;2023-07-31T10:20:19;100333.00;;;32.92;64.86
21640;BME280;10981;45.462;10.974;2023-07-31T10:22:51;100331.72;;;32.84;67.47
21640;BME280;10981;45.462;10.974;2023-07-31T10:25:22;100328.69;;;32.91;65.96
21640;BME280;10981;45.462;10.974;2023-07-31T10:27:53;100328.00;;;32.65;64.72
21640;BME280;10981;45.462;10.974;2023-07-31T10:30:26;100320.50;;;32.56;67.52
21640;BME280;10981;45.462;10.974;2023-07-31T10:32:55;100327.78;;;32.61;64.34
21640;BME280;10981;45.462;10.974;2023-07-31T10:35:24;100325.16;;;32.46;62.71
21640;BME280;10981;45.462;10.974;2023-07-31T10:37:53;100324.56;;;32.54;61.85
21640;BME280;10981;45.462;10.974;2023-07-31T10:40:26;100326.25;;;32.44;64.95
21640;BME280;10981;45.462;10.974;2023-07-31T10:42:56;100323.25;;;32.46;65.91
21640;BME280;10981;45.462;10.974;2023-07-31T10:45:33;100323.53;;;32.50;64.28
21640;BME280;10981;45.462;10.974;2023-07-31T10:48:06;100320.22;;;32.58;64.28
21640;BME280;10981;45.462;10.974;2023-07-31T10:50:45;100326.97;;;32.60;64.23
21640;BME280;10981;45.462;10.974;2023-07-31T10:53:25;100315.41;;;32.50;66.95
21640;BME280;10981;45.462;10.974;2023-07-31T10:56:05;100314.56;;;32.49;63.40
21640;BME280;10981;45.462;10.974;2023-07-31T10:58:34;100315.25;;;32.25;62.59
21640;BME280;10981;45.462;10.974;2023-07-31T11:01:04;100311.34;;;32.47;66.09
21640;BME280;10981;45.462;10.974;2023-07-31T11:06:14;100316.78;;;32.87;66.37
21640;BME280;10981;45.462;10.974;2023-07-31T11:08:47;100312.91;;;32.58;63.98
21640;BME280;10981;45.462;10.974;2023-07-31T11:11:19;100326.06;;;32.31;64.08
21640;BME280;10981;45.462;10.974;2023-07-31T11:13:53;100327.03;;;32.50;65.75
21640;BME280;10981;45.462;10.974;2023-07-31T11:16:23;100326.41;;;32.64;66.57
21640;BME280;10981;45.462;10.974;2023-07-31T11:18:53;100321.47;;;32.76;66.48
21640;BME280;10981;45.462;10.974;2023-07-31T11:21:25;100312.53;;;32.75;65.35
21640;BME280;10981;45.462;10.974;2023-07-31T11:23:57;100316.88;;;32.76;63.01
21640;BME280;10981;45.462;10.974;2023-07-31T11:26:28;100311.75;;;32.65;66.72
21640;BME280;10981;45.462;10.974;2023-07-31T11:28:58;100322.56;;;32.75;64.48
21640;BME280;10981;45.462;10.974;2023-07-31T11:31:27;100313.59;;;32.80;64.29
21640;BME280;10981;45.462;10.974;2023-07-31T11:34:06;100314.00;;;32.97;66.50
21640;BME280;10981;45.462;10.974;2023-07-31T11:36:34;100310.25;;;32.93;61.56
21640;BME280;10981;45.462;10.974;2023-07-31T11:39:09;100308.91;;;32.90;63.85
21640;BME280;10981;45.462;10.974;2023-07-31T11:41:41;100304.22;;;33.01;63.64
21640;BME280;10981;45.462;10.974;2023-07-31T11:44:09;100299.00;;;33.10;64.62
21640;BME280;10981;45.462;10.974;2023-07-31T11:46:57;100294.06;;;33.17;62.94
21640;BME280;10981;45.462;10.974;2023-07-31T11:49:26;100306.94;;;33.31;63.37
21640;BME280;10981;45.462;10.974;2023-07-31T11:51:55;100290.38;;;33.62;63.26
21640;BME280;10981;45.462;10.974;2023-07-31T11:54:23;100293.28;;;33.41;62.57
21640;BME280;10981;45.462;10.974;2023-07-31T11:56:52;100292.63;;;33.25;62.67
21640;BME280;10981;45.462;10.974;2023-07-31T11:59:20;100286.38;;;33.24;63.09
21640;BME280;10981;45.462;10.974;2023-07-31T12:01:49;100297.06;;;33.16;63.28
21640;BME280;10981;45.462;10.974;2023-07-31T12:04:21;100287.25;;;33.20;64.18
21640;BME280;10981;45.462;10.974;2023-07-31T12:06:50;100291.81;;;33.24;61.82
21640;BME280;10981;45.462;10.974;2023-07-31T12:09:23;100287.69;;;33.62;66.32
21640;BME280;10981;45.462;10.974;2023-07-31T12:11:55;100276.34;;;33.54;60.83
21640;BME280;10981;45.462;10.974;2023-07-31T12:14:29;100265.63;;;33.44;64.02
21640;BME280;10981;45.462;10.974;2023-07-31T12:17:01;100260.13;;;33.73;62.96
21640;BME280;10981;45.462;10.974;2023-07-31T12:19:32;100262.44;;;33.61;61.74
21640;BME280;10981;45.462;10.974;2023-07-31T12:22:00;100275.03;;;33.52;62.76
21640;BME280;10981;45.462;10.974;2023-07-31T12:24:29;100265.22;;;33.32;62.43
21640;BME280;10981;45.462;10.974;2023-07-31T12:27:00;100257.53;;;32.80;64.58
21640;BME280;10981;45.462;10.974;2023-07-31T12:29:35;100247.00;;;32.68;66.63
21640;BME280;10981;45.462;10.974;2023-07-31T12:32:21;100248.94;;;33.02;62.78
21640;BME280;10981;45.462;10.974;2023-07-31T12:34:50;100241.53;;;33.13;63.56
21640;BME280;10981;45.462;10.974;2023-07-31T12:37:20;100246.47;;;33.60;65.90
21640;BME280;10981;45.462;10.974;2023-07-31T12:39:48;100237.47;;;33.64;62.78
21640;BME280;10981;45.462;10.974;2023-07-31T12:42:18;100235.69;;;33.54;62.15
21640;BME280;10981;45.462;10.974;2023-07-31T12:44:46;100230.72;;;33.62;59.77
21640;BME280;10981;45.462;10.974;2023-07-31T12:47:14;100223.47;;;33.76;60.83
21640;BME280;10981;45.462;10.974;2023-07-31T12:49:43;100229.22;;;33.50;59.16
21640;BME280;10981;45.462;10.974;2023-07-31T12:52:11;100223.41;;;33.08;63.24